sensor_id;sensor_type;location;lat;lon;timestamp;pressure;altitude;pressure_sealevel;temperature;humidity
67840;BME280;54636;51.684;5.142;2023-01-01T00:01:27;100786.75;;;14.89;64.18
67840;BME280;54636;51.684;5.142;2023-01-01T00:03:55;100804.56;;;14.96;64.81
67840;BME280;54636;51.684;5.142;2023-01-01T00:06:21;100807.72;;;15.05;63.92
67840;BME280;54636;51.684;5.142;2023-01-01T00:08:48;100767.78;;;14.67;64.85
67840;BME280;54636;51.684;5.142;2023-01-01T00:11:13;100817.78;;;14.92;64.62
67840;BME280;54636;51.684;5.142;2023-01-01T00:13:41;100843.69;;;15.15;64.60
67840;BME280;54636;51.684;5.142;2023-01-01T00:16:12;100779.16;;;14.76;65.14
67840;BME280;54636;51.684;5.142;2023-01-01T00:18:38;100849.34;;;15.23;65.01
67840;BME280;54636;51.684;5.142;2023-01-01T00:21:06;100785.81;;;14.81;65.58
67840;BME280;54636;51.684;5.142;2023-01-01T00:23:33;100772.16;;;14.81;66.19
67840;BME280;54636;51.684;5.142;2023-01-01T00:25:58;100826.53;;;15.14;66.42
67840;BME280;54636;51.684;5.142;2023-01-01T00:28:24;100785.84;;;14.75;66.52
67840;BME280;54636;51.684;5.142;2023-01-01T00:30:50;100799.81;;;14.72;67.04
67840;BME280;54636;51.684;5.142;2023-01-01T00:33:16;100821.94;;;14.68;67.86
67840;BME280;54636;51.684;5.142;2023-01-01T00:35:41;100812.22;;;14.73;67.34
67840;BME280;54636;51.684;5.142;2023-01-01T00:38:06;100791.56;;;14.42;67.82
67840;BME280;54636;51.684;5.142;2023-01-01T00:40:32;100803.09;;;14.65;67.49
67840;BME280;54636;51.684;5.142;2023-01-01T00:42:57;100802.06;;;14.68;66.97
67840;BME280;54636;51.684;5.142;2023-01-01T00:45:23;100820.66;;;14.75;67.71
67840;BME280;54636;51.684;5.142;2023-01-01T00:47:52;100854.19;;;14.81;68.07
67840;BME280;54636;51.684;5.142;2023-01-01T00:50:19;100822.25;;;14.59;69.12
67840;BME280;54636;51.684;5.142;2023-01-01T00:52:46;100838.59;;;14.70;68.51
67840;BME280;54636;51.684;5.142;2023-01-01T00:55:13;100839.84;;;14.69;68.37
67840;BME280;54636;51.684;5.142;2023-01-01T00:57:38;100839.16;;;14.58;68.43
67840;BME280;54636;51.684;5.142;2023-01-01T01:00:04;100828.53;;;14.48;68.12
67840;BME280;54636;51.684;5.142;2023-01-01T01:02:30;100847.50;;;14.76;67.21
67840;BME280;54636;51.684;5.142;2023-01-01T01:04:56;100812.19;;;14.43;67.87
67840;BME280;54636;51.684;5.142;2023-01-01T01:07:21;100834.72;;;14.55;67.23
67840;BME280;54636;51.684;5.142;2023-01-01T01:09:46;100831.25;;;14.54;66.81
67840;BME280;54636;51.684;5.142;2023-01-01T01:12:12;100808.09;;;14.61;66.26
67840;BME280;54636;51.684;5.142;2023-01-01T01:14:37;100815.63;;;14.49;65.99
67840;BME280;54636;51.684;5.142;2023-01-01T01:17:03;100844.09;;;14.65;66.94
67840;BME280;54636;51.684;5.142;2023-01-01T01:19:28;100808.94;;;14.44;67.21
67840;BME280;54636;51.684;5.142;2023-01-01T01:21:54;100852.25;;;14.70;66.23
67840;BME280;54636;51.684;5.142;2023-01-01T01:24:19;100800.38;;;14.24;67.71
67840;BME280;54636;51.684;5.142;2023-01-01T01:26:44;100817.41;;;14.35;66.64
67840;BME280;54636;51.684;5.142;2023-01-01T01:29:10;100801.75;;;14.36;66.84
67840;BME280;54636;51.684;5.142;2023-01-01T01:31:35;100795.69;;;14.18;66.50
67840;BME280;54636;51.684;5.142;2023-01-01T01:34:01;100859.00;;;14.64;66.33
67840;BME280;54636;51.684;5.142;2023-01-01T01:36:27;100868.47;;;14.63;66.68
67840;BME280;54636;51.684;5.142;2023-01-01T01:38:53;100800.38;;;14.24;66.36
67840;BME280;54636;51.684;5.142;2023-01-01T01:41:21;100843.06;;;14.27;67.00
67840;BME280;54636;51.684;5.142;2023-01-01T01:44:02;100883.34;;;14.67;66.79
67840;BME280;54636;51.684;5.142;2023-01-01T01:49:01;100867.78;;;14.51;66.38
67840;BME280;54636;51.684;5.142;2023-01-01T01:51:36;100874.94;;;14.60;66.95
67840;BME280;54636;51.684;5.142;2023-01-01T01:54:08;100873.75;;;14.49;66.97
67840;BME280;54636;51.684;5.142;2023-01-01T01:57:10;100878.19;;;14.58;66.86
67840;BME280;54636;51.684;5.142;2023-01-01T01:59:41;100880.94;;;14.53;66.17
67840;BME280;54636;51.684;5.142;2023-01-01T02:02:35;100905.75;;;14.60;65.78
67840;BME280;54636;51.684;5.142;2023-01-01T02:05:05;100904.06;;;14.52;65.58
67840;BME280;54636;51.684;5.142;2023-01-01T02:07:31;100905.31;;;14.50;65.80
67840;BME280;54636;51.684;5.142;2023-01-01T02:09:58;100905.34;;;14.45;65.51
67840;BME280;54636;51.684;5.142;2023-01-01T02:12:25;100913.53;;;14.39;65.95
67840;BME280;54636;51.684;5.142;2023-01-01T02:14:51;100892.19;;;14.32;64.94
67840;BME280;54636;51.684;5.142;2023-01-01T02:17:23;100902.59;;;14.39;65.73
67840;BME280;54636;51.684;5.142;2023-01-01T02:28:00;100896.63;;;14.46;65.53
67840;BME280;54636;51.684;5.142;2023-01-01T02:30:32;100901.13;;;14.44;64.23
67840;BME280;54636;51.684;5.142;2023-01-01T02:33:06;100867.91;;;14.29;64.50
67840;BME280;54636;51.684;5.142;2023-01-01T02:35:43;100875.66;;;14.19;64.56
67840;BME280;54636;51.684;5.142;2023-01-01T02:38:14;100911.63;;;14.29;65.02
67840;BME280;54636;51.684;5.142;2023-01-01T02:40:45;100904.34;;;14.42;64.28
67840;BME280;54636;51.684;5.142;2023-01-01T02:43:11;100882.56;;;14.26;63.75
67840;BME280;54636;51.684;5.142;2023-01-01T02:45:37;100865.28;;;14.06;64.40
67840;BME280;54636;51.684;5.142;2023-01-01T02:48:34;100878.59;;;14.27;63.68
67840;BME280;54636;51.684;5.142;2023-01-01T02:50:54;100888.81;;;14.21;64.11
67840;BME280;54636;51.684;5.142;2023-01-01T02:53:31;100913.59;;;14.28;64.29
67840;BME280;54636;51.684;5.142;2023-01-01T02:56:24;100927.41;;;14.53;64.06
67840;BME280;54636;51.684;5.142;2023-01-01T03:01:56;100909.56;;;14.35;64.18
67840;BME280;54636;51.684;5.142;2023-01-01T03:07:12;100931.19;;;14.33;64.79
67840;BME280;54636;51.684;5.142;2023-01-01T03:09:48;100920.25;;;14.33;64.36
67840;BME280;54636;51.684;5.142;2023-01-01T03:12:39;100930.00;;;14.28;64.66
67840;BME280;54636;51.684;5.142;2023-01-01T03:15:27;100920.72;;;14.48;64.65
67840;BME280;54636;51.684;5.142;2023-01-01T03:18:14;100939.88;;;14.42;64.88
67840;BME280;54636;51.684;5.142;2023-01-01T03:20:46;100899.03;;;14.09;64.77
67840;BME280;54636;51.684;5.142;2023-01-01T03:23:18;100940.13;;;14.33;64.96
67840;BME280;54636;51.684;5.142;2023-01-01T03:25:48;100941.38;;;14.32;65.08
67840;BME280;54636;51.684;5.142;2023-01-01T03:28:28;100930.00;;;14.28;65.32
67840;BME280;54636;51.684;5.142;2023-01-01T03:30:58;100941.44;;;14.21;65.49
67840;BME280;54636;51.684;5.142;2023-01-01T03:33:31;100925.34;;;14.12;65.38
67840;BME280;54636;51.684;5.142;2023-01-01T03:38:30;100972.69;;;14.31;65.37
67840;BME280;54636;51.684;5.142;2023-01-01T03:41:05;100934.00;;;14.16;65.46
67840;BME280;54636;51.684;5.142;2023-01-01T03:46:07;100969.44;;;14.33;65.39
67840;BME280;54636;51.684;5.142;2023-01-01T03:48:34;100966.47;;;14.31;65.47
67840;BME280;54636;51.684;5.142;2023-01-01T03:54:16;100984.84;;;14.30;66.09
67840;BME280;54636;51.684;5.142;2023-01-01T03:56:51;100979.91;;;14.29;66.36
67840;BME280;54636;51.684;5.142;2023-01-01T03:59:23;100971.72;;;14.29;66.41
67840;BME280;54636;51.684;5.142;2023-01-01T04:01:56;100982.59;;;14.34;66.64
67840;BME280;54636;51.684;5.142;2023-01-01T04:04:23;100977.47;;;14.20;66.56
67840;BME280;54636;51.684;5.142;2023-01-01T04:06:51;100983.44;;;14.18;67.02
67840;BME280;54636;51.684;5.142;2023-01-01T04:09:20;100947.97;;;14.01;66.60
67840;BME280;54636;51.684;5.142;2023-01-01T04:11:47;100986.16;;;14.24;67.37
67840;BME280;54636;51.684;5.142;2023-01-01T04:14:31;100964.06;;;14.10;67.73
67840;BME280;54636;51.684;5.142;2023-01-01T04:16:58;100999.31;;;14.20;67.83
67840;BME280;54636;51.684;5.142;2023-01-01T04:19:24;101000.09;;;14.09;68.46
67840;BME280;54636;51.684;5.142;2023-01-01T04:21:50;100995.84;;;14.13;68.19
67840;BME280;54636;51.684;5.142;2023-01-01T04:24:16;100977.22;;;14.12;68.00
67840;BME280;54636;51.684;5.142;2023-01-01T04:26:42;100983.66;;;14.26;67.66
67840;BME280;54636;51.684;5.142;2023-01-01T04:29:07;101019.19;;;14.26;67.91
67840;BME280;54636;51.684;5.142;2023-01-01T04:31:33;101000.59;;;14.07;68.69
67840;BME280;54636;51.684;5.142;2023-01-01T04:33:59;101016.94;;;14.30;68.19
67840;BME280;54636;51.684;5.142;2023-01-01T04:36:24;101011.25;;;14.11;68.34
67840;BME280;54636;51.684;5.142;2023-01-01T04:38:50;101028.38;;;14.17;68.78
67840;BME280;54636;51.684;5.142;2023-01-01T04:41:15;101049.44;;;14.44;68.06
67840;BME280;54636;51.684;5.142;2023-01-01T04:43:40;101033.31;;;14.30;68.60
67840;BME280;54636;51.684;5.142;2023-01-01T04:46:06;101021.94;;;14.14;69.14
67840;BME280;54636;51.684;5.142;2023-01-01T04:48:34;101046.19;;;14.35;68.94
67840;BME280;54636;51.684;5.142;2023-01-01T04:51:01;101049.19;;;14.37;69.01
67840;BME280;54636;51.684;5.142;2023-01-01T04:53:29;101055.63;;;14.34;69.74
67840;BME280;54636;51.684;5.142;2023-01-01T04:56:02;101033.09;;;14.11;70.31
67840;BME280;54636;51.684;5.142;2023-01-01T04:58:27;101069.09;;;14.26;70.81
67840;BME280;54636;51.684;5.142;2023-01-01T05:00:53;101073.06;;;14.25;71.86
67840;BME280;54636;51.684;5.142;2023-01-01T05:03:18;101069.09;;;14.21;72.15
67840;BME280;54636;51.684;5.142;2023-01-01T05:05:43;101000.16;;;13.64;71.97
67840;BME280;54636;51.684;5.142;2023-01-01T05:08:09;101043.06;;;13.92;72.85
67840;BME280;54636;51.684;5.142;2023-01-01T05:10:34;101062.16;;;14.14;72.46
67840;BME280;54636;51.684;5.142;2023-01-01T05:12:59;101069.63;;;14.02;72.98
67840;BME280;54636;51.684;5.142;2023-01-01T05:15:25;101028.66;;;13.69;73.81
67840;BME280;54636;51.684;5.142;2023-01-01T05:17:50;101068.88;;;13.79;74.76
67840;BME280;54636;51.684;5.142;2023-01-01T05:20:16;101073.34;;;13.94;73.20
67840;BME280;54636;51.684;5.142;2023-01-01T05:22:41;101077.56;;;13.95;72.97
67840;BME280;54636;51.684;5.142;2023-01-01T05:25:07;101058.72;;;13.63;73.89
67840;BME280;54636;51.684;5.142;2023-01-01T05:27:32;101101.13;;;13.81;74.16
67840;BME280;54636;51.684;5.142;2023-01-01T05:29:57;101089.72;;;13.60;75.47
67840;BME280;54636;51.684;5.142;2023-01-01T05:32:23;101117.00;;;13.66;75.89
67840;BME280;54636;51.684;5.142;2023-01-01T05:34:48;101087.47;;;13.42;76.77
67840;BME280;54636;51.684;5.142;2023-01-01T05:37:14;101121.72;;;13.54;77.32
67840;BME280;54636;51.684;5.142;2023-01-01T05:39:39;101128.41;;;13.53;78.64
67840;BME280;54636;51.684;5.142;2023-01-01T05:42:05;101120.22;;;13.47;78.71
67840;BME280;54636;51.684;5.142;2023-01-01T05:44:30;101128.88;;;13.40;79.68
67840;BME280;54636;51.684;5.142;2023-01-01T05:46:56;101132.81;;;13.28;80.40
67840;BME280;54636;51.684;5.142;2023-01-01T05:49:22;101145.72;;;13.33;80.86
67840;BME280;54636;51.684;5.142;2023-01-01T05:51:47;101131.84;;;13.37;80.70
67840;BME280;54636;51.684;5.142;2023-01-01T05:54:12;101150.94;;;13.37;80.53
67840;BME280;54636;51.684;5.142;2023-01-01T05:56:38;101141.72;;;13.23;80.75
67840;BME280;54636;51.684;5.142;2023-01-01T05:59:03;101150.63;;;13.18;80.01
67840;BME280;54636;51.684;5.142;2023-01-01T06:01:30;101159.31;;;13.22;79.01
67840;BME280;54636;51.684;5.142;2023-01-01T06:03:56;101152.38;;;13.27;74.47
67840;BME280;54636;51.684;5.142;2023-01-01T06:06:25;101155.25;;;13.06;73.99
67840;BME280;54636;51.684;5.142;2023-01-01T06:08:52;101163.47;;;13.12;73.58
67840;BME280;54636;51.684;5.142;2023-01-01T06:11:18;101154.63;;;12.80;72.51
67840;BME280;54636;51.684;5.142;2023-01-01T06:13:44;101158.38;;;12.82;72.72
67840;BME280;54636;51.684;5.142;2023-01-01T06:16:09;101184.16;;;12.87;72.69
67840;BME280;54636;51.684;5.142;2023-01-01T06:18:35;101174.91;;;12.73;73.32
67840;BME280;54636;51.684;5.142;2023-01-01T06:21:05;101195.25;;;12.78;74.02
67840;BME280;54636;51.684;5.142;2023-01-01T06:23:31;101193.47;;;12.69;74.75
67840;BME280;54636;51.684;5.142;2023-01-01T06:25:56;101216.25;;;12.66;75.79
67840;BME280;54636;51.684;5.142;2023-01-01T06:28:22;101197.53;;;12.48;75.96
67840;BME280;54636;51.684;5.142;2023-01-01T06:30:47;101209.13;;;12.43;76.14
67840;BME280;54636;51.684;5.142;2023-01-01T06:33:12;101198.84;;;12.27;75.84
67840;BME280;54636;51.684;5.142;2023-01-01T06:35:38;101221.38;;;12.59;74.43
67840;BME280;54636;51.684;5.142;2023-01-01T06:38:03;101237.16;;;12.49;74.38
67840;BME280;54636;51.684;5.142;2023-01-01T06:40:28;101224.88;;;12.28;74.06
67840;BME280;54636;51.684;5.142;2023-01-01T06:42:54;101247.47;;;12.34;75.00
67840;BME280;54636;51.684;5.142;2023-01-01T06:45:19;101234.75;;;12.25;74.61
67840;BME280;54636;51.684;5.142;2023-01-01T06:47:44;101233.63;;;12.11;75.18
67840;BME280;54636;51.684;5.142;2023-01-01T06:50:10;101244.84;;;12.19;76.35
67840;BME280;54636;51.684;5.142;2023-01-01T06:52:35;101257.44;;;12.16;76.27
67840;BME280;54636;51.684;5.142;2023-01-01T06:55:01;101250.44;;;12.10;76.59
67840;BME280;54636;51.684;5.142;2023-01-01T06:57:26;101248.34;;;11.99;76.90
67840;BME280;54636;51.684;5.142;2023-01-01T06:59:51;101260.31;;;12.07;77.79
67840;BME280;54636;51.684;5.142;2023-01-01T07:02:17;101243.66;;;12.00;79.01
67840;BME280;54636;51.684;5.142;2023-01-01T07:04:42;101259.41;;;12.16;78.43
67840;BME280;54636;51.684;5.142;2023-01-01T07:07:08;101255.09;;;12.04;80.09
67840;BME280;54636;51.684;5.142;2023-01-01T07:09:33;101247.28;;;11.91;82.15
67840;BME280;54636;51.684;5.142;2023-01-01T07:11:58;101268.09;;;11.94;82.70
67840;BME280;54636;51.684;5.142;2023-01-01T07:14:24;101279.59;;;11.83;82.65
67840;BME280;54636;51.684;5.142;2023-01-01T07:16:49;101285.53;;;11.82;84.38
67840;BME280;54636;51.684;5.142;2023-01-01T07:19:14;101270.97;;;11.65;84.35
67840;BME280;54636;51.684;5.142;2023-01-01T07:21:43;101283.06;;;11.64;84.33
67840;BME280;54636;51.684;5.142;2023-01-01T07:24:11;101310.06;;;11.67;84.19
67840;BME280;54636;51.684;5.142;2023-01-01T07:26:37;101311.44;;;11.57;84.80
67840;BME280;54636;51.684;5.142;2023-01-01T07:29:04;101318.00;;;11.50;86.56
67840;BME280;54636;51.684;5.142;2023-01-01T07:31:30;101311.28;;;11.46;86.19
67840;BME280;54636;51.684;5.142;2023-01-01T07:33:55;101317.88;;;11.60;84.52
67840;BME280;54636;51.684;5.142;2023-01-01T07:36:20;101319.19;;;11.64;83.28
67840;BME280;54636;51.684;5.142;2023-01-01T07:38:46;101300.44;;;11.31;84.14
67840;BME280;54636;51.684;5.142;2023-01-01T07:41:11;101346.50;;;11.55;84.49
67840;BME280;54636;51.684;5.142;2023-01-01T07:43:37;101352.44;;;11.53;84.04
67840;BME280;54636;51.684;5.142;2023-01-01T07:46:02;101359.09;;;11.52;85.20
67840;BME280;54636;51.684;5.142;2023-01-01T07:48:28;101365.56;;;11.55;84.21
67840;BME280;54636;51.684;5.142;2023-01-01T07:50:54;101370.72;;;11.53;84.52
67840;BME280;54636;51.684;5.142;2023-01-01T07:53:22;101368.56;;;11.57;84.28
67840;BME280;54636;51.684;5.142;2023-01-01T07:55:48;101382.44;;;11.59;84.44
67840;BME280;54636;51.684;5.142;2023-01-01T07:58:13;101385.16;;;11.59;83.97
67840;BME280;54636;51.684;5.142;2023-01-01T08:00:39;101383.75;;;11.64;84.20
67840;BME280;54636;51.684;5.142;2023-01-01T08:03:04;101380.66;;;11.56;85.33
67840;BME280;54636;51.684;5.142;2023-01-01T08:05:31;101380.19;;;11.58;85.49
67840;BME280;54636;51.684;5.142;2023-01-01T08:07:58;101382.63;;;11.55;87.03
67840;BME280;54636;51.684;5.142;2023-01-01T08:10:23;101364.25;;;11.50;86.50
67840;BME280;54636;51.684;5.142;2023-01-01T08:12:48;101393.72;;;11.52;87.55
67840;BME280;54636;51.684;5.142;2023-01-01T08:15:17;101395.00;;;11.57;87.45
67840;BME280;54636;51.684;5.142;2023-01-01T08:17:42;101378.97;;;11.59;87.50
67840;BME280;54636;51.684;5.142;2023-01-01T08:20:08;101384.41;;;11.59;88.16
67840;BME280;54636;51.684;5.142;2023-01-01T08:22:36;101390.44;;;11.48;89.42
67840;BME280;54636;51.684;5.142;2023-01-01T08:25:02;101400.19;;;11.40;90.29
67840;BME280;54636;51.684;5.142;2023-01-01T08:27:28;101407.34;;;11.37;90.42
67840;BME280;54636;51.684;5.142;2023-01-01T08:29:56;101419.25;;;11.40;90.76
67840;BME280;54636;51.684;5.142;2023-01-01T08:32:21;101418.78;;;11.41;91.26
67840;BME280;54636;51.684;5.142;2023-01-01T08:34:47;101405.91;;;11.42;91.55
67840;BME280;54636;51.684;5.142;2023-01-01T08:37:13;101411.06;;;11.40;92.31
67840;BME280;54636;51.684;5.142;2023-01-01T08:39:39;101414.75;;;11.37;92.45
67840;BME280;54636;51.684;5.142;2023-01-01T08:42:04;101426.84;;;11.36;93.15
67840;BME280;54636;51.684;5.142;2023-01-01T08:44:30;101424.03;;;11.30;93.47
67840;BME280;54636;51.684;5.142;2023-01-01T08:46:55;101418.13;;;11.32;93.66
67840;BME280;54636;51.684;5.142;2023-01-01T08:49:20;101440.91;;;11.49;92.54
67840;BME280;54636;51.684;5.142;2023-01-01T08:51:46;101438.47;;;11.36;93.17
67840;BME280;54636;51.684;5.142;2023-01-01T08:54:11;101428.53;;;11.33;93.28
67840;BME280;54636;51.684;5.142;2023-01-01T08:56:37;101454.69;;;11.45;93.68
67840;BME280;54636;51.684;5.142;2023-01-01T08:59:02;101445.13;;;11.50;94.05
67840;BME280;54636;51.684;5.142;2023-01-01T09:01:28;101447.09;;;11.49;94.38
67840;BME280;54636;51.684;5.142;2023-01-01T09:03:53;101442.84;;;11.63;93.92
67840;BME280;54636;51.684;5.142;2023-01-01T09:06:19;101443.78;;;11.60;94.23
67840;BME280;54636;51.684;5.142;2023-01-01T09:08:44;101422.25;;;11.42;94.13
67840;BME280;54636;51.684;5.142;2023-01-01T09:11:24;101467.91;;;11.67;94.04
67840;BME280;54636;51.684;5.142;2023-01-01T09:13:50;101462.47;;;11.67;94.46
67840;BME280;54636;51.684;5.142;2023-01-01T09:16:16;101458.03;;;11.70;94.44
67840;BME280;54636;51.684;5.142;2023-01-01T09:18:42;101437.22;;;11.52;94.86
67840;BME280;54636;51.684;5.142;2023-01-01T09:21:07;101466.72;;;11.88;94.74
67840;BME280;54636;51.684;5.142;2023-01-01T09:23:33;101461.97;;;11.83;96.02
67840;BME280;54636;51.684;5.142;2023-01-01T09:26:03;101464.75;;;11.74;97.69
67840;BME280;54636;51.684;5.142;2023-01-01T09:28:29;101471.25;;;11.77;98.22
67840;BME280;54636;51.684;5.142;2023-01-01T09:30:54;101472.88;;;11.69;100.00
67840;BME280;54636;51.684;5.142;2023-01-01T09:33:20;101464.81;;;11.45;100.00
67840;BME280;54636;51.684;5.142;2023-01-01T09:35:45;101492.22;;;11.41;100.00
67840;BME280;54636;51.684;5.142;2023-01-01T09:38:11;101495.97;;;11.44;100.00
67840;BME280;54636;51.684;5.142;2023-01-01T09:46:08;101483.81;;;10.86;100.00
67840;BME280;54636;51.684;5.142;2023-01-01T09:48:38;101453.22;;;10.62;100.00
67840;BME280;54636;51.684;5.142;2023-01-01T09:51:06;101488.22;;;10.83;100.00
67840;BME280;54636;51.684;5.142;2023-01-01T09:53:40;101499.00;;;10.78;100.00
67840;BME280;54636;51.684;5.142;2023-01-01T09:56:18;101483.97;;;10.68;100.00
67840;BME280;54636;51.684;5.142;2023-01-01T09:58:45;101490.53;;;10.76;100.00
67840;BME280;54636;51.684;5.142;2023-01-01T10:04:48;101503.88;;;10.88;100.00
67840;BME280;54636;51.684;5.142;2023-01-01T10:09:59;101496.38;;;10.83;100.00
67840;BME280;54636;51.684;5.142;2023-01-01T10:12:38;101495.63;;;10.83;100.00
67840;BME280;54636;51.684;5.142;2023-01-01T10:15:26;101494.63;;;10.95;100.00
67840;BME280;54636;51.684;5.142;2023-01-01T10:17:57;101488.50;;;10.85;100.00
67840;BME280;54636;51.684;5.142;2023-01-01T10:20:28;101520.13;;;10.98;100.00
67840;BME280;54636;51.684;5.142;2023-01-01T10:23:01;101501.84;;;10.98;100.00
67840;BME280;54636;51.684;5.142;2023-01-01T10:25:30;101515.53;;;11.04;100.00
67840;BME280;54636;51.684;5.142;2023-01-01T10:30:28;101504.09;;;11.14;100.00
67840;BME280;54636;51.684;5.142;2023-01-01T10:32:55;101511.88;;;11.21;100.00
67840;BME280;54636;51.684;5.142;2023-01-01T10:35:25;101499.69;;;11.17;100.00
67840;BME280;54636;51.684;5.142;2023-01-01T10:37:57;101504.56;;;11.13;100.00
67840;BME280;54636;51.684;5.142;2023-01-01T10:40:24;101491.63;;;11.08;100.00
67840;BME280;54636;51.684;5.142;2023-01-01T10:42:55;101484.88;;;11.03;100.00
67840;BME280;54636;51.684;5.142;2023-01-01T10:48:17;101495.56;;;11.07;100.00
67840;BME280;54636;51.684;5.142;2023-01-01T10:50:47;101466.13;;;10.91;100.00
67840;BME280;54636;51.684;5.142;2023-01-01T10:53:23;101500.66;;;11.29;100.00
67840;BME280;54636;51.684;5.142;2023-01-01T10:55:58;101485.53;;;11.28;100.00
67840;BME280;54636;51.684;5.142;2023-01-01T10:58:34;101522.03;;;11.65;100.00
67840;BME280;54636;51.684;5.142;2023-01-01T11:01:02;101519.19;;;11.74;100.00
67840;BME280;54636;51.684;5.142;2023-01-01T11:03:28;101522.50;;;11.78;100.00
67840;BME280;54636;51.684;5.142;2023-01-01T11:08:31;101521.00;;;11.77;100.00
67840;BME280;54636;51.684;5.142;2023-01-01T11:10:59;101534.03;;;11.88;100.00
67840;BME280;54636;51.684;5.142;2023-01-01T11:13:28;101525.31;;;11.84;100.00
67840;BME280;54636;51.684;5.142;2023-01-01T11:15:58;101522.22;;;11.91;100.00
67840;BME280;54636;51.684;5.142;2023-01-01T11:18:29;101518.53;;;11.94;100.00
67840;BME280;54636;51.684;5.142;2023-01-01T11:21:01;101522.69;;;11.90;100.00
67840;BME280;54636;51.684;5.142;2023-01-01T11:23:33;101521.94;;;11.89;100.00
67840;BME280;54636;51.684;5.142;2023-01-01T11:26:18;101515.81;;;11.94;100.00
67840;BME280;54636;51.684;5.142;2023-01-01T11:29:00;101490.56;;;11.94;100.00
67840;BME280;54636;51.684;5.142;2023-01-01T11:31:29;101504.91;;;12.09;100.00
67840;BME280;54636;51.684;5.142;2023-01-01T11:33:58;101492.31;;;12.11;100.00
67840;BME280;54636;51.684;5.142;2023-01-01T11:36:27;101497.13;;;12.02;100.00
67840;BME280;54636;51.684;5.142;2023-01-01T11:39:26;101507.31;;;12.22;100.00
67840;BME280;54636;51.684;5.142;2023-01-01T11:41:57;101470.44;;;12.06;100.00
67840;BME280;54636;51.684;5.142;2023-01-01T11:44:44;101487.78;;;12.23;100.00
67840;BME280;54636;51.684;5.142;2023-01-01T11:50:16;101482.56;;;12.05;100.00
67840;BME280;54636;51.684;5.142;2023-01-01T11:52:44;101485.75;;;12.03;100.00
67840;BME280;54636;51.684;5.142;2023-01-01T12:06:25;101524.28;;;12.51;100.00
67840;BME280;54636;51.684;5.142;2023-01-01T12:09:13;101525.31;;;12.54;100.00
67840;BME280;54636;51.684;5.142;2023-01-01T12:11:56;101525.16;;;12.43;100.00
67840;BME280;54636;51.684;5.142;2023-01-01T12:20:10;101461.88;;;12.13;100.00
67840;BME280;54636;51.684;5.142;2023-01-01T12:22:38;101464.41;;;12.16;100.00
67840;BME280;54636;51.684;5.142;2023-01-01T12:25:04;101471.78;;;12.31;100.00
67840;BME280;54636;51.684;5.142;2023-01-01T12:27:46;101491.72;;;12.42;100.00
67840;BME280;54636;51.684;5.142;2023-01-01T12:30:23;101458.44;;;12.33;99.89
67840;BME280;54636;51.684;5.142;2023-01-01T12:36:23;101501.72;;;12.71;98.62
67840;BME280;54636;51.684;5.142;2023-01-01T12:55:35;101488.66;;;13.01;96.00
67840;BME280;54636;51.684;5.142;2023-01-01T12:58:30;101492.38;;;12.98;94.74
67840;BME280;54636;51.684;5.142;2023-01-01T13:00:57;101492.31;;;12.93;95.37
67840;BME280;54636;51.684;5.142;2023-01-01T13:03:27;101490.06;;;12.91;94.63
67840;BME280;54636;51.684;5.142;2023-01-01T13:05:56;101493.13;;;13.04;93.57
67840;BME280;54636;51.684;5.142;2023-01-01T13:08:21;101480.44;;;12.96;92.38
67840;BME280;54636;51.684;5.142;2023-01-01T13:10:59;101487.88;;;12.95;94.33
67840;BME280;54636;51.684;5.142;2023-01-01T13:13:26;101488.81;;;12.92;93.96
67840;BME280;54636;51.684;5.142;2023-01-01T13:15:54;101490.47;;;12.84;93.99
67840;BME280;54636;51.684;5.142;2023-01-01T13:18:22;101481.47;;;12.78;93.12
67840;BME280;54636;51.684;5.142;2023-01-01T13:23:45;101485.91;;;12.75;94.51
67840;BME280;54636;51.684;5.142;2023-01-01T13:34:35;101484.91;;;12.73;94.38
67840;BME280;54636;51.684;5.142;2023-01-01T13:42:41;101497.09;;;12.77;94.71
67840;BME280;54636;51.684;5.142;2023-01-01T13:45:37;101497.16;;;12.83;95.53
67840;BME280;54636;51.684;5.142;2023-01-01T13:50:59;101496.75;;;12.90;94.73
67840;BME280;54636;51.684;5.142;2023-01-01T13:59:19;101504.72;;;12.94;93.68
67840;BME280;54636;51.684;5.142;2023-01-01T14:02:08;101482.97;;;12.79;94.54
67840;BME280;54636;51.684;5.142;2023-01-01T14:07:42;101500.84;;;12.80;93.38
67840;BME280;54636;51.684;5.142;2023-01-01T14:17:59;101472.31;;;12.35;94.60
67840;BME280;54636;51.684;5.142;2023-01-01T14:20:36;101470.19;;;12.24;95.07
67840;BME280;54636;51.684;5.142;2023-01-01T14:23:08;101463.72;;;12.22;95.35
67840;BME280;54636;51.684;5.142;2023-01-01T14:25:35;101495.72;;;12.47;95.51
67840;BME280;54636;51.684;5.142;2023-01-01T14:28:00;101494.91;;;12.41;95.98
67840;BME280;54636;51.684;5.142;2023-01-01T14:30:30;101490.97;;;12.42;95.63
67840;BME280;54636;51.684;5.142;2023-01-01T14:32:58;101470.53;;;12.32;95.53
67840;BME280;54636;51.684;5.142;2023-01-01T14:35:24;101490.22;;;12.41;95.29
67840;BME280;54636;51.684;5.142;2023-01-01T14:37:50;101466.81;;;12.29;95.70
67840;BME280;54636;51.684;5.142;2023-01-01T14:40:17;101479.25;;;12.36;95.54
67840;BME280;54636;51.684;5.142;2023-01-01T14:42:53;101478.44;;;12.30;95.15
67840;BME280;54636;51.684;5.142;2023-01-01T14:45:20;101474.44;;;12.25;96.00
67840;BME280;54636;51.684;5.142;2023-01-01T14:47:48;101480.41;;;12.29;95.91
67840;BME280;54636;51.684;5.142;2023-01-01T14:50:28;101476.00;;;12.32;95.78
67840;BME280;54636;51.684;5.142;2023-01-01T14:53:01;101477.63;;;12.24;95.94
67840;BME280;54636;51.684;5.142;2023-01-01T14:55:33;101477.06;;;12.19;96.69
67840;BME280;54636;51.684;5.142;2023-01-01T14:58:01;101477.91;;;12.26;95.37